createdAt,value
2019-05-16T00:00:14.309Z,22.05
2019-05-16T00:02:47.996Z,21.42
2019-05-16T00:05:19.196Z,19.92
2019-05-16T00:07:50.707Z,20.40
2019-05-16T00:10:22.355Z,20.15
2019-05-16T00:12:54.025Z,20.97
2019-05-16T00:15:25.543Z,20.35
2019-05-16T00:17:58.383Z,19.25
2019-05-16T00:20:30.046Z,19.75
2019-05-16T00:23:01.559Z,20.45
2019-05-16T00:25:33.262Z,19.60
2019-05-16T00:28:04.779Z,19.02
2019-05-16T00:30:38.940Z,19.45
2019-05-16T00:33:09.495Z,20.00
2019-05-16T00:35:41.040Z,22.30
2019-05-16T00:38:12.468Z,19.85
2019-05-16T00:40:44.044Z,20.55
2019-05-16T00:43:15.393Z,22.07
2019-05-16T00:45:48.647Z,22.52
2019-05-16T00:48:20.074Z,22.02
2019-05-16T00:50:51.427Z,22.35
2019-05-16T00:53:22.881Z,23.52
2019-05-16T00:55:54.966Z,23.05
2019-05-16T00:58:28.428Z,22.85
2019-05-16T01:00:59.827Z,22.35
2019-05-16T01:03:31.167Z,22.98
2019-05-16T01:06:15.438Z,23.22
2019-05-16T01:08:35.713Z,22.42
2019-05-16T01:11:07.944Z,23.22
2019-05-16T01:13:39.558Z,24.18
2019-05-16T01:16:10.905Z,24.20
2019-05-16T01:18:42.515Z,23.65
2019-05-16T01:21:13.864Z,24.87
2019-05-16T01:23:45.244Z,23.85
2019-05-16T01:26:18.546Z,25.65
2019-05-16T01:28:49.760Z,24.55
2019-05-16T01:31:21.094Z,24.00
2019-05-16T01:33:55.292Z,23.83
2019-05-16T01:36:36.655Z,24.07
2019-05-16T01:39:00.073Z,23.65
2019-05-16T01:41:31.538Z,24.27
2019-05-16T01:44:03.377Z,24.60
2019-05-16T01:46:34.733Z,25.45
2019-05-16T01:49:08.175Z,25.55
2019-05-16T01:51:39.379Z,30.23
2019-05-16T01:54:10.845Z,29.35
2019-05-16T01:56:43.369Z,30.23
2019-05-16T01:59:14.948Z,30.85
2019-05-16T02:01:48.272Z,31.68
2019-05-16T02:04:19.736Z,30.82
2019-05-16T02:06:54.684Z,31.87
2019-05-16T02:09:24.764Z,33.55
2019-05-16T02:11:58.751Z,33.28
2019-05-16T02:14:29.557Z,32.73
2019-05-16T02:17:01.014Z,34.10
2019-05-16T02:19:32.627Z,33.90
2019-05-16T02:22:04.117Z,34.23
2019-05-16T02:24:35.463Z,35.60
2019-05-16T02:27:09.389Z,39.80
2019-05-16T02:29:40.271Z,39.23
2019-05-16T02:32:11.828Z,37.65
2019-05-16T02:34:43.290Z,39.55
2019-05-16T02:37:24.469Z,38.50
2019-05-16T02:39:51.557Z,36.23
2019-05-16T02:42:21.634Z,31.27
2019-05-16T02:44:52.957Z,34.43
2019-05-16T02:47:24.336Z,29.23
2019-05-16T02:49:55.607Z,26.93
2019-05-16T02:52:26.895Z,27.35
2019-05-16T02:55:00.810Z,27.02
2019-05-16T02:57:31.892Z,28.50
2019-05-16T03:00:03.737Z,30.30
2019-05-16T03:02:35.187Z,33.80
2019-05-16T03:05:11.527Z,30.20
2019-05-16T03:07:46.936Z,34.10
2019-05-16T03:10:15.484Z,38.60
2019-05-16T03:12:51.369Z,38.50
2019-05-16T03:15:22.900Z,34.55
2019-05-16T03:18:00.353Z,33.67
2019-05-16T03:20:33.805Z,32.55
2019-05-16T03:23:05.241Z,32.90
2019-05-16T03:25:36.537Z,32.50
2019-05-16T03:28:10.900Z,28.83
2019-05-16T03:30:44.669Z,28.75
2019-05-16T03:33:22.481Z,28.65
2019-05-16T03:35:47.248Z,29.20
2019-05-16T03:38:21.338Z,25.37
2019-05-16T03:40:51.779Z,25.57
2019-05-16T03:43:23.057Z,26.87
2019-05-16T03:45:54.394Z,25.70
2019-05-16T03:48:25.787Z,24.90
2019-05-16T03:50:57.077Z,26.90
2019-05-16T03:53:31.472Z,26.05
2019-05-16T03:56:02.014Z,25.95
2019-05-16T03:58:33.644Z,25.52
2019-05-16T04:01:06.448Z,27.75
2019-05-16T04:03:40.985Z,28.38
2019-05-16T04:06:11.939Z,28.38
2019-05-16T04:08:43.847Z,28.25
2019-05-16T04:11:18.566Z,29.42
2019-05-16T04:13:50.797Z,31.70
2019-05-16T04:16:21.724Z,29.52
2019-05-16T04:18:53.306Z,30.72
2019-05-16T04:21:24.936Z,30.15
2019-05-16T04:23:56.354Z,28.02
2019-05-16T04:26:30.793Z,27.62
2019-05-16T04:29:01.223Z,27.75
2019-05-16T04:31:32.555Z,26.93
2019-05-16T04:34:04.009Z,28.17
2019-05-16T04:36:35.718Z,28.87
2019-05-16T04:39:11.663Z,29.98
2019-05-16T04:41:41.287Z,30.12
2019-05-16T04:44:12.706Z,27.07
2019-05-16T04:46:43.971Z,24.15
2019-05-16T04:49:16.353Z,24.47
2019-05-16T04:51:47.864Z,22.05
2019-05-16T04:54:21.545Z,22.05
2019-05-16T04:56:53.088Z,21.73
2019-05-16T04:59:24.461Z,22.87
2019-05-16T05:01:56.014Z,23.30
2019-05-16T05:04:30.288Z,23.38
2019-05-16T05:07:00.835Z,31.25
2019-05-16T05:09:33.348Z,21.20
2019-05-16T05:12:05.089Z,20.75
2019-05-16T05:14:36.581Z,20.68
2019-05-16T05:17:10.507Z,21.00
2019-05-16T05:19:41.532Z,18.57
2019-05-16T05:22:13.207Z,18.35
2019-05-16T05:24:44.632Z,17.75
2019-05-16T05:27:16.154Z,16.42
2019-05-16T05:29:47.460Z,15.35
2019-05-16T05:32:20.053Z,13.78
2019-05-16T05:34:51.678Z,14.55
2019-05-16T05:37:23.121Z,12.05
2019-05-16T05:39:54.573Z,13.58
2019-05-16T05:42:25.998Z,13.03
2019-05-16T05:44:57.477Z,12.00
2019-05-16T05:47:30.735Z,9.93
2019-05-16T05:50:02.140Z,10.70
2019-05-16T05:52:33.621Z,9.23
2019-05-16T05:55:06.791Z,13.43
2019-05-16T05:57:40.362Z,80.87
2019-05-16T06:00:11.686Z,9.68
2019-05-16T06:02:43.227Z,9.73
2019-05-16T06:05:14.735Z,10.80
2019-05-16T06:07:47.091Z,23.57
2019-05-16T06:10:19.894Z,8.83
2019-05-16T06:12:51.302Z,62.93
2019-05-16T06:15:22.734Z,8.38
2019-05-16T06:17:54.076Z,9.00
2019-05-16T06:20:25.612Z,14.58
2019-05-16T06:22:56.987Z,6.00
2019-05-16T06:25:31.440Z,6.20
2019-05-16T06:28:01.456Z,6.28
2019-05-16T06:30:33.108Z,8.38
2019-05-16T06:33:04.515Z,6.65
2019-05-16T06:35:36.928Z,6.92
2019-05-16T06:38:09.969Z,6.60
2019-05-16T06:40:41.495Z,12.25
2019-05-16T06:43:12.793Z,5.28
2019-05-16T06:45:44.188Z,6.15
2019-05-16T06:48:15.442Z,9.58
2019-05-16T06:50:46.921Z,8.55
2019-05-16T06:53:20.978Z,5.62
2019-05-16T06:55:52.571Z,4.65
2019-05-16T06:58:23.908Z,6.53
2019-05-16T07:00:55.287Z,5.92
2019-05-16T07:03:26.724Z,4.80
2019-05-16T07:06:00.347Z,5.33
2019-05-16T07:08:31.357Z,4.35
2019-05-16T07:11:02.780Z,9.38
2019-05-16T07:13:34.162Z,5.10
2019-05-16T07:16:06.641Z,3.70
2019-05-16T07:18:40.103Z,3.95
2019-05-16T07:21:13.441Z,5.10
2019-05-16T07:23:45.090Z,8.68
2019-05-16T07:26:16.633Z,6.85
2019-05-16T07:28:47.945Z,4.30
2019-05-16T07:31:22.273Z,4.10
2019-05-16T07:33:52.546Z,4.50
2019-05-16T07:36:24.081Z,9.25
2019-05-16T07:38:55.451Z,8.23
2019-05-16T07:41:26.910Z,9.43
2019-05-16T07:44:00.733Z,7.97
2019-05-16T07:46:31.731Z,8.90
2019-05-16T07:49:03.053Z,4.47
2019-05-16T07:51:34.449Z,11.78
2019-05-16T07:54:05.908Z,10.15
2019-05-16T07:56:40.458Z,10.50
2019-05-16T07:59:10.601Z,6.53
2019-05-16T08:01:43.375Z,6.28
2019-05-16T08:04:14.892Z,6.08
2019-05-16T08:06:47.152Z,16.65
2019-05-16T08:09:21.153Z,7.75
2019-05-16T08:11:51.841Z,5.15
2019-05-16T08:14:23.262Z,6.33
2019-05-16T08:16:54.652Z,5.55
2019-05-16T08:19:27.444Z,4.30
2019-05-16T08:22:01.241Z,5.15
2019-05-16T08:24:36.048Z,5.62
2019-05-16T08:27:05.417Z,17.23
2019-05-16T08:29:36.912Z,13.50
2019-05-16T08:32:11.459Z,6.08
2019-05-16T08:34:41.476Z,6.97
2019-05-16T08:37:32.845Z,12.37
2019-05-16T08:39:46.070Z,7.05
2019-05-16T08:42:20.603Z,6.75
2019-05-16T08:47:23.562Z,6.60
2019-05-16T08:49:56.012Z,6.00
2019-05-16T08:52:27.411Z,4.85
2019-05-16T08:55:03.350Z,8.40
2019-05-16T08:57:34.010Z,5.40
2019-05-16T09:00:13.590Z,5.17
2019-05-16T09:02:42.434Z,4.80
2019-05-16T09:05:15.248Z,5.87
2019-05-16T09:07:46.606Z,8.13
2019-05-16T09:10:42.043Z,6.60
2019-05-16T09:12:51.341Z,6.37
2019-05-16T09:15:22.922Z,5.72
2019-05-16T09:17:54.248Z,5.28
2019-05-16T09:20:28.073Z,5.30
2019-05-16T09:22:58.864Z,6.00
2019-05-16T09:25:30.417Z,5.28
2019-05-16T09:28:01.887Z,4.72
2019-05-16T09:30:33.254Z,4.75
2019-05-16T09:33:07.058Z,4.97
2019-05-16T09:35:37.727Z,4.67
2019-05-16T09:38:09.225Z,4.90
2019-05-16T09:40:40.637Z,3.98
2019-05-16T09:43:12.057Z,3.87
2019-05-16T09:45:43.464Z,4.37
2019-05-16T09:48:18.467Z,4.03
2019-05-16T09:50:48.657Z,5.00
2019-05-16T09:53:20.347Z,5.10
2019-05-16T09:55:51.700Z,5.70
2019-05-16T09:58:23.114Z,5.05
2019-05-16T10:00:57.483Z,4.37
2019-05-16T10:03:29.273Z,4.20
2019-05-16T10:06:00.653Z,6.00
2019-05-16T10:08:34.197Z,5.97
2019-05-16T10:11:06.327Z,5.60
2019-05-16T10:13:38.139Z,5.00
2019-05-16T10:16:09.621Z,5.55
2019-05-16T10:18:41.955Z,6.12
2019-05-16T10:21:17.789Z,4.72
2019-05-16T10:23:47.066Z,5.33
2019-05-16T10:26:19.548Z,4.90
2019-05-16T10:28:51.071Z,4.65
2019-05-16T10:31:36.555Z,4.42
2019-05-16T10:33:58.123Z,5.00
2019-05-16T10:36:28.701Z,5.20
2019-05-16T10:39:00.172Z,4.90
2019-05-16T10:41:31.710Z,5.70
2019-05-16T10:44:03.212Z,5.10
2019-05-16T10:46:37.741Z,4.60
2019-05-16T10:49:08.671Z,3.83
2019-05-16T10:51:40.146Z,3.92
2019-05-16T10:54:17.233Z,3.67
2019-05-16T10:56:46.727Z,3.83
2019-05-16T11:01:51.952Z,3.90
2019-05-16T11:04:29.196Z,4.10
2019-05-16T11:06:58.605Z,5.00
2019-05-16T11:09:30.020Z,5.10
2019-05-16T11:12:01.404Z,3.92
2019-05-16T11:14:33.003Z,5.70
2019-05-16T11:17:07.254Z,4.78
2019-05-16T11:19:38.059Z,4.40
2019-05-16T11:22:09.585Z,3.87
2019-05-16T11:24:41.085Z,3.95
2019-05-16T11:27:12.720Z,3.45
2019-05-16T11:29:44.173Z,3.80
2019-05-16T11:32:15.663Z,3.30
2019-05-16T11:34:47.986Z,4.87
2019-05-16T11:37:19.656Z,4.80
2019-05-16T11:39:51.086Z,4.90
2019-05-16T11:42:22.850Z,3.60
2019-05-16T11:44:54.329Z,4.10
2019-05-16T11:47:27.190Z,5.40
2019-05-16T11:49:58.721Z,4.83
2019-05-16T11:52:30.557Z,6.00
2019-05-16T11:55:02.258Z,4.90
2019-05-16T11:57:34.011Z,4.08
2019-05-16T12:00:08.570Z,4.03
2019-05-16T12:02:42.623Z,4.10
2019-05-16T12:05:13.255Z,5.28
2019-05-16T12:07:48.179Z,3.85
2019-05-16T12:10:18.037Z,3.60
2019-05-16T12:12:49.762Z,3.95
2019-05-16T12:15:23.922Z,3.27
2019-05-16T12:18:01.798Z,3.95
2019-05-16T12:20:28.554Z,4.30
2019-05-16T12:25:48.562Z,3.80
2019-05-16T12:28:20.110Z,3.75
2019-05-16T12:30:51.458Z,3.77
2019-05-16T12:33:22.914Z,3.30
2019-05-16T12:35:57.351Z,3.87
2019-05-16T12:38:27.890Z,3.60
2019-05-16T12:40:59.338Z,3.37
2019-05-16T12:43:44.803Z,4.50
2019-05-16T12:46:08.187Z,6.17
2019-05-16T12:48:39.622Z,4.92
2019-05-16T12:51:11.064Z,4.60
2019-05-16T12:53:48.225Z,4.53
2019-05-16T12:56:19.684Z,4.67
2019-05-16T12:58:51.123Z,4.47
2019-05-16T13:01:30.624Z,4.30
2019-05-16T13:04:00.411Z,4.50
2019-05-16T13:06:31.832Z,4.87
2019-05-16T13:09:03.678Z,4.30
2019-05-16T13:11:37.540Z,5.30
2019-05-16T13:14:11.239Z,5.35
2019-05-16T13:16:41.566Z,5.78
2019-05-16T13:19:18.303Z,5.25
2019-05-16T13:21:49.981Z,4.50
2019-05-16T13:24:21.422Z,4.62
2019-05-16T13:26:52.963Z,4.70
2019-05-16T13:29:27.333Z,4.17
2019-05-16T13:31:58.008Z,4.65
2019-05-16T13:34:29.580Z,23.85
2019-05-16T13:37:00.971Z,6.00
2019-05-16T13:39:33.445Z,4.87
2019-05-16T13:42:07.741Z,5.35
2019-05-16T13:44:38.370Z,4.95
2019-05-16T13:47:09.951Z,4.80
2019-05-16T13:49:41.380Z,5.05
2019-05-16T13:52:12.843Z,4.95
2019-05-16T13:54:44.400Z,6.83
2019-05-16T13:57:17.298Z,5.22
2019-05-16T13:59:49.049Z,5.12
2019-05-16T14:02:20.524Z,7.83
2019-05-16T14:04:51.932Z,4.67
2019-05-16T14:07:23.337Z,3.58
2019-05-16T14:09:57.724Z,6.55
2019-05-16T14:12:28.279Z,4.17
2019-05-16T14:14:59.737Z,4.80
2019-05-16T14:17:31.226Z,4.30
2019-05-16T14:20:02.991Z,4.62
2019-05-16T14:22:36.038Z,5.60
2019-05-16T14:25:08.952Z,7.05
2019-05-16T14:27:40.414Z,6.55
2019-05-16T14:30:12.125Z,12.07
2019-05-16T14:32:44.458Z,6.62
2019-05-16T14:35:16.080Z,6.22
2019-05-16T14:37:47.864Z,15.28
2019-05-16T14:40:19.271Z,7.10
2019-05-16T14:42:50.754Z,9.20
2019-05-16T14:45:23.142Z,9.85
2019-05-16T14:47:54.556Z,6.58
2019-05-16T14:50:27.546Z,9.23
2019-05-16T14:52:59.287Z,5.62
2019-05-16T14:55:30.724Z,13.48
2019-05-16T14:58:02.125Z,7.10
2019-05-16T15:00:34.514Z,6.60
2019-05-16T15:03:08.315Z,10.10
2019-05-16T15:05:42.597Z,6.75
2019-05-16T15:08:12.458Z,7.65
2019-05-16T15:10:44.111Z,10.65
2019-05-16T15:13:17.482Z,8.98
2019-05-16T15:15:48.854Z,7.30
2019-05-16T15:18:20.316Z,9.65
2019-05-16T15:20:51.815Z,7.33
2019-05-16T15:23:24.195Z,8.70
2019-05-16T15:25:55.725Z,8.80
2019-05-16T15:28:30.265Z,9.20
2019-05-16T15:31:00.198Z,7.90
2019-05-16T15:33:31.692Z,8.88
2019-05-16T15:36:04.701Z,7.03
2019-05-16T15:38:36.545Z,8.53
2019-05-16T15:41:08.773Z,7.15
2019-05-16T15:43:40.415Z,7.17
2019-05-16T15:46:12.124Z,7.47
2019-05-16T15:48:43.920Z,7.25
2019-05-16T15:51:20.518Z,7.30
2019-05-16T15:53:51.738Z,7.05
2019-05-16T15:56:23.238Z,7.33
2019-05-16T15:58:54.575Z,8.35
2019-05-16T16:01:27.629Z,8.00
2019-05-16T16:03:59.377Z,8.25
2019-05-16T16:06:30.838Z,8.60
2019-05-16T16:09:02.488Z,9.20
2019-05-16T16:11:37.457Z,10.28
2019-05-16T16:14:09.975Z,8.68
2019-05-16T16:16:43.010Z,8.65
2019-05-16T16:19:17.303Z,8.50
2019-05-16T16:21:47.672Z,7.90
2019-05-16T16:24:19.470Z,8.55
2019-05-16T16:26:51.026Z,7.70
2019-05-16T16:29:22.450Z,7.05
2019-05-16T16:31:56.813Z,6.92
2019-05-16T16:34:27.985Z,7.05
2019-05-16T16:36:59.455Z,6.58
2019-05-16T16:39:31.032Z,6.80
2019-05-16T16:42:02.537Z,7.15
2019-05-16T16:44:36.397Z,7.30
2019-05-16T16:47:07.348Z,9.08
2019-05-16T16:49:40.536Z,7.30
2019-05-16T16:52:13.823Z,7.95
2019-05-16T16:54:47.446Z,8.10
2019-05-16T16:57:18.474Z,8.68
2019-05-16T16:59:49.915Z,7.42
2019-05-16T17:02:21.274Z,9.90
2019-05-16T17:04:52.677Z,9.68
2019-05-16T17:07:24.050Z,10.18
2019-05-16T17:09:56.361Z,10.90
2019-05-16T17:12:28.031Z,7.83
2019-05-16T17:14:59.465Z,9.05
2019-05-16T17:17:32.584Z,7.53
2019-05-16T17:20:07.315Z,7.45
2019-05-16T17:22:38.530Z,7.08
2019-05-16T17:25:10.797Z,7.42
2019-05-16T17:27:42.249Z,7.83
2019-05-16T17:30:17.061Z,7.65
2019-05-16T17:32:48.987Z,6.90
2019-05-16T17:35:20.951Z,7.78
2019-05-16T17:37:52.493Z,7.70
2019-05-16T17:40:24.021Z,7.17
2019-05-16T17:42:56.843Z,7.47
2019-05-16T17:45:28.488Z,8.05
2019-05-16T17:48:00.067Z,7.28
2019-05-16T17:50:31.553Z,7.55
2019-05-16T17:53:03.113Z,7.75
2019-05-16T17:55:36.940Z,7.40
2019-05-16T17:58:09.079Z,7.25
2019-05-16T18:00:40.702Z,7.37
2019-05-16T18:03:12.439Z,7.47
2019-05-16T18:05:44.015Z,7.03
2019-05-16T18:08:15.571Z,7.53
2019-05-16T18:10:47.386Z,7.60
2019-05-16T18:13:18.949Z,7.45
2019-05-16T18:15:50.416Z,7.95
2019-05-16T18:18:23.445Z,7.37
2019-05-16T18:21:01.450Z,8.05
2019-05-16T18:23:28.160Z,7.35
2019-05-16T18:26:02.103Z,7.62
2019-05-16T18:28:32.878Z,7.47
2019-05-16T18:31:06.886Z,7.80
2019-05-16T18:33:38.404Z,7.70
2019-05-16T18:36:09.945Z,7.85
2019-05-16T18:38:41.384Z,7.60
2019-05-16T18:41:12.867Z,7.50
2019-05-16T18:43:44.420Z,7.45
2019-05-16T18:46:16.335Z,7.55
2019-05-16T18:48:47.937Z,7.45
2019-05-16T18:51:19.368Z,8.10
2019-05-16T18:53:50.801Z,7.62
2019-05-16T18:56:22.222Z,7.80
2019-05-16T18:58:53.575Z,8.50
2019-05-16T19:01:26.867Z,8.15
2019-05-16T19:04:00.477Z,8.15
2019-05-16T19:06:31.921Z,9.55
2019-05-16T19:09:07.129Z,9.28
2019-05-16T19:11:38.329Z,9.08
2019-05-16T19:14:10.199Z,10.18
2019-05-16T19:16:41.648Z,10.05
2019-05-16T19:19:12.917Z,9.13
2019-05-16T19:21:44.450Z,9.60
2019-05-16T19:24:16.445Z,8.73
2019-05-16T19:26:48.296Z,8.43
2019-05-16T19:29:19.892Z,8.45
2019-05-16T19:31:51.420Z,7.80
2019-05-16T19:34:23.899Z,7.37
2019-05-16T19:36:58.062Z,7.90
2019-05-16T19:39:33.448Z,8.18
2019-05-16T19:42:06.508Z,9.35
2019-05-16T19:44:38.653Z,8.78
2019-05-16T19:47:10.034Z,9.73
2019-05-16T19:49:41.416Z,10.20
2019-05-16T19:52:13.035Z,11.25
2019-05-16T19:54:46.945Z,9.80
2019-05-16T19:57:17.752Z,10.25
2019-05-16T19:59:49.496Z,9.93
2019-05-16T20:02:21.074Z,10.80
2019-05-16T20:04:53.643Z,9.95
2019-05-16T20:07:26.404Z,10.50
2019-05-16T20:09:57.830Z,10.20
2019-05-16T20:12:29.232Z,11.25
2019-05-16T20:15:07.943Z,11.30
2019-05-16T20:17:36.622Z,10.78
2019-05-16T20:20:09.470Z,10.43
2019-05-16T20:22:41.085Z,10.75
2019-05-16T20:25:13.486Z,11.28
2019-05-16T20:27:47.021Z,11.75
2019-05-16T20:30:19.079Z,11.50
2019-05-16T20:32:50.884Z,11.28
2019-05-16T20:35:22.619Z,13.38
2019-05-16T20:37:54.568Z,11.40
2019-05-16T20:40:26.606Z,15.15
2019-05-16T20:42:59.563Z,12.15
2019-05-16T20:45:31.188Z,10.60
2019-05-16T20:48:10.824Z,11.93
2019-05-16T20:50:35.807Z,12.47
2019-05-16T20:53:07.484Z,15.13
2019-05-16T20:55:39.006Z,12.13
2019-05-16T20:58:11.436Z,11.83
2019-05-16T21:00:43.041Z,11.78
2019-05-16T21:03:16.312Z,13.68
2019-05-16T21:05:48.243Z,13.78
2019-05-16T21:08:20.284Z,11.38
2019-05-16T21:10:51.705Z,12.47
2019-05-16T21:13:23.131Z,12.37
2019-05-16T21:15:54.621Z,11.38
2019-05-16T21:18:25.993Z,12.70
2019-05-16T21:20:57.599Z,13.10
2019-05-16T21:23:29.175Z,12.15
2019-05-16T21:26:00.734Z,11.78
2019-05-16T21:28:32.229Z,11.55
2019-05-16T21:31:03.856Z,10.82
2019-05-16T21:33:36.556Z,11.60
2019-05-16T21:36:08.204Z,12.37
2019-05-16T21:38:39.747Z,10.88
2019-05-16T21:41:12.276Z,11.55
2019-05-16T21:43:43.698Z,11.55
2019-05-16T21:46:17.201Z,11.83
2019-05-16T21:48:48.671Z,11.73
2019-05-16T21:51:19.995Z,14.93
2019-05-16T21:53:51.555Z,11.60
2019-05-16T21:56:23.187Z,13.50
2019-05-16T21:58:54.692Z,11.65
2019-05-16T22:01:27.260Z,13.58
2019-05-16T22:03:58.844Z,13.15
2019-05-16T22:06:30.660Z,12.45
2019-05-16T22:09:02.114Z,13.22
2019-05-16T22:11:37.095Z,13.10
2019-05-16T22:14:08.414Z,13.25
2019-05-16T22:16:41.090Z,12.68
2019-05-16T22:19:12.639Z,12.75
2019-05-16T22:21:44.247Z,12.65
2019-05-16T22:24:17.257Z,12.80
2019-05-16T22:26:48.883Z,12.40
2019-05-16T22:29:20.418Z,12.90
2019-05-16T22:31:51.895Z,13.00
2019-05-16T22:34:23.564Z,13.30
2019-05-16T22:36:57.242Z,14.45
2019-05-16T22:39:28.528Z,14.65
2019-05-16T22:42:00.210Z,14.95
2019-05-16T22:44:31.665Z,15.95
2019-05-16T22:47:03.240Z,15.58
2019-05-16T22:49:36.815Z,14.03
2019-05-16T22:52:08.103Z,14.03
2019-05-16T22:54:39.582Z,13.78
2019-05-16T22:57:11.019Z,14.40
2019-05-16T22:59:42.304Z,13.18
2019-05-16T23:02:13.721Z,13.43
2019-05-16T23:04:47.321Z,13.95
2019-05-16T23:07:18.465Z,13.83
2019-05-16T23:09:49.849Z,12.88
2019-05-16T23:12:21.277Z,13.10
2019-05-16T23:14:52.749Z,13.62
2019-05-16T23:17:26.574Z,13.60
2019-05-16T23:19:57.318Z,13.20
2019-05-16T23:22:28.768Z,13.80
2019-05-16T23:25:00.116Z,13.30
2019-05-16T23:27:31.445Z,14.10
2019-05-16T23:30:02.914Z,13.55
2019-05-16T23:32:36.530Z,13.55
2019-05-16T23:35:07.866Z,13.70
2019-05-16T23:37:39.469Z,15.32
2019-05-16T23:40:11.228Z,14.15
2019-05-16T23:42:42.993Z,14.40
2019-05-16T23:45:16.873Z,14.83
2019-05-16T23:47:47.758Z,15.15
2019-05-16T23:50:20.791Z,14.58
2019-05-16T23:52:52.116Z,14.63
2019-05-16T23:55:23.486Z,14.45
2019-05-16T23:57:57.120Z,15.40
